createdAt,value
2023-02-06T00:01:18.102Z,-5.40
2023-02-06T00:03:45.070Z,-5.40
2023-02-06T00:06:11.899Z,-5.40
2023-02-06T00:08:38.770Z,-5.40
2023-02-06T00:11:07.588Z,-5.30
2023-02-06T00:13:35.666Z,-5.40
2023-02-06T00:16:03.478Z,-5.40
2023-02-06T00:18:32.120Z,-5.40
2023-02-06T00:20:58.989Z,-5.40
2023-02-06T00:23:25.940Z,-5.40
2023-02-06T00:25:52.792Z,-5.30
2023-02-06T00:28:19.730Z,-5.40
2023-02-06T00:30:47.819Z,-5.40
2023-02-06T00:33:14.729Z,-5.40
2023-02-06T00:35:41.540Z,-5.30
2023-02-06T00:38:12.595Z,-5.30
2023-02-06T00:40:39.448Z,-5.20
2023-02-06T00:43:06.350Z,-5.20
2023-02-06T00:45:33.496Z,-5.30
2023-02-06T00:48:01.116Z,-5.30
2023-02-06T00:50:28.058Z,-5.40
2023-02-06T00:52:55.055Z,-5.40
2023-02-06T00:55:21.948Z,-5.40
2023-02-06T00:58:01.266Z,-5.30
2023-02-06T01:00:28.080Z,-5.30
2023-02-06T01:02:54.951Z,-5.30
2023-02-06T01:05:21.855Z,-5.30
2023-02-06T01:07:48.770Z,-5.30
2023-02-06T01:10:16.162Z,-5.30
2023-02-06T01:12:43.137Z,-5.40
2023-02-06T01:15:11.941Z,-5.40
2023-02-06T01:17:39.945Z,-5.50
2023-02-06T01:20:09.766Z,-5.50
2023-02-06T01:22:37.275Z,-5.50
2023-02-06T01:25:04.607Z,-5.40
2023-02-06T01:27:31.733Z,-5.30
2023-02-06T01:29:58.557Z,-5.40
2023-02-06T01:32:25.395Z,-5.40
2023-02-06T01:34:52.173Z,-5.60
2023-02-06T01:37:18.954Z,-5.50
2023-02-06T01:39:45.745Z,-5.60
2023-02-06T01:42:13.321Z,-5.50
2023-02-06T01:44:40.398Z,-5.40
2023-02-06T01:47:11.050Z,-5.50
2023-02-06T01:49:50.067Z,-5.50
2023-02-06T01:52:31.527Z,-5.40
2023-02-06T01:55:03.942Z,-5.40
2023-02-06T01:57:31.885Z,-5.40
2023-02-06T02:00:02.837Z,-5.40
2023-02-06T02:02:32.409Z,-5.40
2023-02-06T02:05:01.664Z,-5.30
2023-02-06T02:07:33.298Z,-5.30
2023-02-06T02:10:00.184Z,-5.30
2023-02-06T02:12:27.067Z,-5.50
2023-02-06T02:14:55.074Z,-5.60
2023-02-06T02:17:21.944Z,-5.60
2023-02-06T02:19:57.620Z,-5.50
2023-02-06T02:22:36.615Z,-5.50
2023-02-06T02:25:33.854Z,-5.50
2023-02-06T02:28:25.118Z,-5.40
2023-02-06T02:31:19.084Z,-5.30
2023-02-06T02:34:20.349Z,-5.40
2023-02-06T02:37:03.267Z,-5.40
2023-02-06T02:39:48.151Z,-5.30
2023-02-06T02:42:42.374Z,-5.30
2023-02-06T02:45:25.035Z,-5.30
2023-02-06T02:48:16.889Z,-5.30
2023-02-06T02:50:44.444Z,-5.30
2023-02-06T02:53:13.287Z,-5.40
2023-02-06T02:55:40.108Z,-5.50
2023-02-06T02:58:10.724Z,-5.50
2023-02-06T03:00:43.387Z,-5.50
2023-02-06T03:03:12.987Z,-5.50
2023-02-06T03:05:51.347Z,-5.40
2023-02-06T03:08:28.278Z,-5.30
2023-02-06T03:11:10.118Z,-5.30
2023-02-06T03:14:22.376Z,-5.40
2023-02-06T03:16:58.255Z,-5.50
2023-02-06T03:19:31.869Z,-5.40
2023-02-06T03:22:00.446Z,-5.50
2023-02-06T03:24:32.844Z,-5.50
2023-02-06T03:27:02.330Z,-5.50
2023-02-06T03:29:32.961Z,-5.40
2023-02-06T03:32:30.672Z,-5.50
2023-02-06T03:35:09.393Z,-5.50
2023-02-06T03:37:37.752Z,-5.50
2023-02-06T03:40:06.251Z,-5.60
2023-02-06T03:42:35.029Z,-5.70
2023-02-06T03:45:06.968Z,-5.70
2023-02-06T03:47:36.688Z,-5.80
2023-02-06T03:50:06.577Z,-5.70
2023-02-06T03:52:39.479Z,-5.70
2023-02-06T03:55:13.821Z,-5.70
2023-02-06T03:57:44.044Z,-5.80
2023-02-06T04:00:11.897Z,-5.80
2023-02-06T04:02:39.560Z,-5.90
2023-02-06T04:05:18.531Z,-5.90
2023-02-06T04:07:45.465Z,-5.80
2023-02-06T04:10:12.383Z,-5.90
2023-02-06T04:12:39.593Z,-6.00
2023-02-06T04:15:06.756Z,-6.10
2023-02-06T04:17:49.791Z,-6.20
2023-02-06T04:20:20.922Z,-6.10
2023-02-06T04:22:48.000Z,-6.10
2023-02-06T04:25:15.168Z,-6.10
2023-02-06T04:27:41.994Z,-6.20
2023-02-06T04:30:09.548Z,-6.20
2023-02-06T04:32:39.237Z,-6.30
2023-02-06T04:35:06.242Z,-6.30
2023-02-06T04:37:33.193Z,-6.40
2023-02-06T04:40:00.021Z,-6.30
2023-02-06T04:42:27.067Z,-6.50
2023-02-06T04:44:55.267Z,-6.60
2023-02-06T04:47:22.138Z,-6.50
2023-02-06T04:49:48.926Z,-6.60
2023-02-06T04:55:01.397Z,-6.40
2023-02-06T04:57:28.221Z,-6.40
2023-02-06T04:59:55.028Z,-6.40
2023-02-06T05:02:21.863Z,-6.40
2023-02-06T05:04:48.741Z,-6.60
2023-02-06T05:07:15.524Z,-6.50
2023-02-06T05:09:42.292Z,-6.50
2023-02-06T05:12:09.300Z,-6.50
2023-02-06T05:14:36.110Z,-6.50
2023-02-06T05:17:02.931Z,-6.50
2023-02-06T05:19:29.750Z,-6.70
2023-02-06T05:21:56.556Z,-6.70
2023-02-06T05:24:23.362Z,-6.80
2023-02-06T05:26:50.207Z,-6.90
2023-02-06T05:29:17.052Z,-6.90
2023-02-06T05:31:44.580Z,-6.80
2023-02-06T05:34:11.394Z,-6.80
2023-02-06T05:36:38.747Z,-7.10
2023-02-06T05:39:05.625Z,-7.10
2023-02-06T05:41:32.450Z,-6.90
2023-02-06T05:43:59.426Z,-7.00
2023-02-06T05:46:26.360Z,-7.00
2023-02-06T05:48:53.183Z,-7.00
2023-02-06T05:51:20.024Z,-6.90
2023-02-06T05:53:46.856Z,-6.90
2023-02-06T05:56:13.695Z,-6.90
2023-02-06T05:58:40.547Z,-6.80
2023-02-06T06:01:07.366Z,-6.80
2023-02-06T06:03:34.244Z,-6.80
2023-02-06T06:06:01.069Z,-6.80
2023-02-06T06:08:27.834Z,-6.80
2023-02-06T06:10:54.682Z,-6.70
2023-02-06T06:13:21.627Z,-6.70
2023-02-06T06:15:52.865Z,-6.80
2023-02-06T06:18:20.921Z,-6.70
2023-02-06T06:20:48.666Z,-6.60
2023-02-06T06:23:15.541Z,-6.60
2023-02-06T06:25:42.390Z,-6.70
2023-02-06T06:28:09.251Z,-6.60
2023-02-06T06:30:37.534Z,-6.60
2023-02-06T06:33:04.860Z,-6.60
2023-02-06T06:35:33.810Z,-6.60
2023-02-06T06:38:00.715Z,-6.50
2023-02-06T06:40:27.527Z,-6.50
2023-02-06T06:42:54.348Z,-6.50
2023-02-06T06:45:23.913Z,-6.50
2023-02-06T06:47:50.761Z,-6.40
2023-02-06T06:50:17.629Z,-6.40
2023-02-06T06:52:44.447Z,-6.40
2023-02-06T06:55:11.642Z,-6.40
2023-02-06T06:57:38.472Z,-6.30
2023-02-06T07:00:06.034Z,-6.30
2023-02-06T07:02:32.910Z,-6.20
2023-02-06T07:05:00.408Z,-6.10
2023-02-06T07:07:27.383Z,-6.10
2023-02-06T07:09:54.217Z,-6.00
2023-02-06T07:12:21.196Z,-6.00
2023-02-06T07:14:47.977Z,-5.90
2023-02-06T07:17:14.856Z,-5.70
2023-02-06T07:19:41.766Z,-5.70
2023-02-06T07:22:09.001Z,-5.60
2023-02-06T07:24:35.836Z,-5.70
2023-02-06T07:27:08.292Z,-5.70
2023-02-06T07:29:35.220Z,-5.40
2023-02-06T07:32:02.127Z,-5.20
2023-02-06T07:34:29.117Z,-5.10
2023-02-06T07:37:00.140Z,-5.20
2023-02-06T07:39:27.535Z,-5.20
2023-02-06T07:41:54.381Z,-5.00
2023-02-06T07:44:21.268Z,-4.80
2023-02-06T07:46:48.085Z,-4.70
2023-02-06T07:49:16.029Z,-4.60
2023-02-06T07:51:44.339Z,-4.60
2023-02-06T07:54:12.580Z,-4.60
2023-02-06T07:56:44.985Z,-4.90
2023-02-06T07:59:11.960Z,-5.10
2023-02-06T08:01:38.782Z,-4.90
2023-02-06T08:04:05.695Z,-4.90
2023-02-06T08:06:32.679Z,-4.70
2023-02-06T08:09:06.202Z,-4.60
2023-02-06T08:11:33.374Z,-4.30
2023-02-06T08:14:01.624Z,-4.30
2023-02-06T08:16:28.797Z,-4.20
2023-02-06T08:18:55.592Z,-3.90
2023-02-06T08:21:24.559Z,-3.70
2023-02-06T08:23:58.810Z,-3.70
2023-02-06T08:26:27.517Z,-3.50
2023-02-06T08:28:56.622Z,-3.40
2023-02-06T08:31:29.013Z,-3.10
2023-02-06T08:33:56.685Z,-3.10
2023-02-06T08:36:24.524Z,-3.10
2023-02-06T08:38:52.506Z,-2.90
2023-02-06T08:41:20.696Z,-2.90
2023-02-06T08:43:48.797Z,-2.90
2023-02-06T08:46:17.365Z,-2.40
2023-02-06T08:48:45.627Z,-2.40
2023-02-06T08:51:13.164Z,-2.20
2023-02-06T08:53:40.025Z,-2.00
2023-02-06T08:56:12.242Z,-1.70
2023-02-06T08:58:39.477Z,-1.80
2023-02-06T09:01:13.700Z,-1.50
2023-02-06T09:03:41.835Z,-1.30
2023-02-06T09:06:10.606Z,-1.10
2023-02-06T09:08:39.835Z,-1.20
2023-02-06T09:11:15.946Z,-1.00
2023-02-06T09:13:44.119Z,-1.00
2023-02-06T09:16:12.130Z,-1.10
2023-02-06T09:18:39.484Z,-1.20
2023-02-06T09:21:12.163Z,-1.10
2023-02-06T09:23:45.820Z,-1.00
2023-02-06T09:26:15.214Z,-1.10
2023-02-06T09:28:42.010Z,-0.90
2023-02-06T09:31:09.351Z,-1.00
2023-02-06T09:33:38.025Z,-0.80
2023-02-06T09:36:07.852Z,-0.80
2023-02-06T09:38:35.639Z,-0.80
2023-02-06T09:41:06.265Z,-0.90
2023-02-06T09:43:34.717Z,-0.80
2023-02-06T09:46:04.547Z,-0.70
2023-02-06T09:48:36.232Z,-0.90
2023-02-06T09:51:25.864Z,-1.00
2023-02-06T09:54:18.519Z,-1.30
2023-02-06T09:57:00.323Z,-1.30
2023-02-06T09:59:47.011Z,-1.00
2023-02-06T10:02:22.590Z,-0.90
2023-02-06T10:05:22.830Z,-1.00
2023-02-06T10:08:01.584Z,-0.90
2023-02-06T10:10:55.972Z,-0.60
2023-02-06T10:13:50.606Z,-0.60
2023-02-06T10:16:39.754Z,-0.30
2023-02-06T10:19:20.997Z,-0.10
2023-02-06T10:22:13.843Z,0.00
2023-02-06T10:25:15.949Z,0.50
2023-02-06T10:27:45.738Z,0.60
2023-02-06T10:30:22.440Z,0.70
2023-02-06T10:32:59.326Z,0.80
2023-02-06T10:35:39.778Z,1.00
2023-02-06T10:38:12.792Z,1.50
2023-02-06T10:41:05.970Z,2.00
2023-02-06T10:43:48.020Z,2.20
2023-02-06T10:46:36.867Z,1.90
2023-02-06T10:49:11.827Z,1.60
2023-02-06T10:51:45.337Z,1.40
2023-02-06T10:54:35.518Z,1.60
2023-02-06T10:57:03.208Z,1.60
2023-02-06T10:59:38.947Z,1.70
2023-02-06T11:02:34.087Z,1.60
2023-02-06T11:05:01.800Z,2.00
2023-02-06T11:07:32.670Z,2.00
2023-02-06T11:10:00.067Z,2.00
2023-02-06T11:12:39.969Z,1.90
2023-02-06T11:15:19.423Z,1.60
2023-02-06T11:17:46.453Z,1.60
2023-02-06T11:20:29.484Z,1.60
2023-02-06T11:22:56.754Z,1.60
2023-02-06T11:25:31.925Z,1.30
2023-02-06T11:28:06.179Z,1.50
2023-02-06T11:30:36.945Z,1.70
2023-02-06T11:33:36.547Z,1.60
2023-02-06T11:36:05.301Z,1.80
2023-02-06T11:38:32.866Z,1.50
2023-02-06T11:41:18.495Z,1.70
2023-02-06T11:43:56.182Z,1.60
2023-02-06T11:46:43.232Z,1.50
2023-02-06T11:49:19.152Z,1.90
2023-02-06T11:51:49.629Z,2.30
2023-02-06T11:54:28.366Z,3.10
2023-02-06T11:57:07.832Z,3.90
2023-02-06T11:59:37.080Z,4.60
2023-02-06T12:02:28.094Z,5.20
2023-02-06T12:05:16.461Z,5.60
2023-02-06T12:07:52.372Z,4.80
2023-02-06T12:10:21.557Z,4.40
2023-02-06T12:13:00.257Z,4.10
2023-02-06T12:15:46.908Z,3.30
2023-02-06T12:18:23.997Z,2.70
2023-02-06T12:21:01.774Z,2.00
2023-02-06T12:23:33.917Z,1.60
2023-02-06T12:26:04.624Z,1.30
2023-02-06T12:28:45.991Z,1.10
2023-02-06T12:31:36.651Z,1.20
2023-02-06T12:34:56.319Z,1.40
2023-02-06T12:37:56.288Z,1.70
2023-02-06T12:40:58.943Z,1.70
2023-02-06T12:43:27.470Z,1.50
2023-02-06T12:46:01.600Z,1.50
2023-02-06T12:48:37.549Z,1.70
2023-02-06T12:51:17.149Z,1.70
2023-02-06T12:53:56.275Z,1.90
2023-02-06T12:56:47.738Z,1.80
2023-02-06T12:59:57.224Z,1.90
2023-02-06T13:03:01.912Z,2.10
2023-02-06T13:05:36.069Z,2.20
2023-02-06T13:08:10.634Z,1.90
2023-02-06T13:10:38.881Z,1.90
2023-02-06T13:13:06.108Z,1.70
2023-02-06T13:15:40.162Z,1.30
2023-02-06T13:18:41.261Z,1.20
2023-02-06T13:21:22.749Z,1.40
2023-02-06T13:23:52.192Z,1.40
2023-02-06T13:26:19.153Z,1.50
2023-02-06T13:28:56.102Z,1.30
2023-02-06T13:31:28.405Z,1.40
2023-02-06T13:34:01.672Z,1.30
2023-02-06T13:36:50.574Z,1.10
2023-02-06T13:39:32.540Z,1.10
2023-02-06T13:42:22.331Z,1.10
2023-02-06T13:44:50.651Z,1.20
2023-02-06T13:47:32.422Z,1.10
2023-02-06T13:50:23.497Z,1.10
2023-02-06T13:53:18.832Z,1.00
2023-02-06T13:56:07.665Z,1.00
2023-02-06T13:58:39.923Z,1.00
2023-02-06T14:01:14.603Z,1.10
2023-02-06T14:03:50.470Z,1.10
2023-02-06T14:06:36.539Z,1.00
2023-02-06T14:09:58.906Z,1.00
2023-02-06T14:12:49.180Z,0.90
2023-02-06T14:15:49.418Z,0.70
2023-02-06T14:18:25.201Z,0.80
2023-02-06T14:21:16.384Z,0.90
2023-02-06T14:24:06.019Z,0.70
2023-02-06T14:27:27.284Z,0.60
2023-02-06T14:30:26.693Z,0.60
2023-02-06T14:33:43.740Z,0.50
2023-02-06T14:36:42.310Z,0.30
2023-02-06T14:39:46.262Z,0.50
2023-02-06T14:42:24.443Z,0.50
2023-02-06T14:44:59.313Z,0.50
2023-02-06T14:47:31.884Z,0.40
2023-02-06T14:50:00.889Z,0.40
2023-02-06T14:52:31.374Z,0.40
2023-02-06T14:54:58.177Z,0.40
2023-02-06T14:57:34.074Z,0.30
2023-02-06T15:00:16.756Z,0.20
2023-02-06T15:02:43.638Z,0.10
2023-02-06T15:05:25.086Z,0.00
2023-02-06T15:08:00.420Z,0.00
2023-02-06T15:10:30.703Z,-0.10
2023-02-06T15:12:58.009Z,-0.10
2023-02-06T15:15:30.747Z,-0.10
2023-02-06T15:18:16.386Z,-0.10
2023-02-06T15:20:58.303Z,-0.20
2023-02-06T15:23:53.135Z,-0.30
2023-02-06T15:26:42.671Z,-0.40
2023-02-06T15:29:26.852Z,-0.60
2023-02-06T15:32:00.847Z,-0.80
2023-02-06T15:34:28.016Z,-0.90
2023-02-06T15:37:01.332Z,-0.90
2023-02-06T15:39:39.097Z,-1.00
2023-02-06T15:42:10.820Z,-1.10
2023-02-06T15:44:38.739Z,-1.10
2023-02-06T15:47:12.987Z,-1.20
2023-02-06T15:49:52.737Z,-1.40
2023-02-06T15:52:48.533Z,-1.40
2023-02-06T15:55:28.044Z,-1.50
2023-02-06T15:57:57.078Z,-1.50
2023-02-06T16:00:31.793Z,-1.60
2023-02-06T16:03:04.608Z,-1.60
2023-02-06T16:05:37.352Z,-1.70
2023-02-06T16:08:10.849Z,-1.80
2023-02-06T16:10:39.582Z,-1.80
2023-02-06T16:13:14.779Z,-1.80
2023-02-06T16:16:09.908Z,-1.90
2023-02-06T16:18:39.170Z,-2.00
2023-02-06T16:21:18.215Z,-2.10
2023-02-06T16:24:06.927Z,-2.20
2023-02-06T16:26:42.759Z,-2.10
2023-02-06T16:29:09.558Z,-2.00
2023-02-06T16:31:39.976Z,-2.10
2023-02-06T16:34:22.961Z,-2.10
2023-02-06T16:36:49.850Z,-2.20
2023-02-06T16:39:22.008Z,-2.20
2023-02-06T16:41:52.091Z,-2.10
2023-02-06T16:44:20.284Z,-2.20
2023-02-06T16:46:47.220Z,-2.20
2023-02-06T16:49:17.052Z,-2.20
2023-02-06T16:51:45.920Z,-2.30
2023-02-06T16:54:31.120Z,-2.30
2023-02-06T16:57:21.321Z,-2.30
2023-02-06T16:59:51.513Z,-2.30
2023-02-06T17:02:18.450Z,-2.40
2023-02-06T17:04:45.465Z,-2.40
2023-02-06T17:07:24.441Z,-2.40
2023-02-06T17:09:56.830Z,-2.50
2023-02-06T17:12:23.964Z,-2.60
2023-02-06T17:14:51.033Z,-2.70
2023-02-06T17:17:20.249Z,-2.60
2023-02-06T17:19:47.688Z,-2.70
2023-02-06T17:22:14.774Z,-2.70
2023-02-06T17:24:42.518Z,-2.70
2023-02-06T17:27:17.294Z,-2.80
2023-02-06T17:29:47.274Z,-2.90
2023-02-06T17:32:16.262Z,-2.90
2023-02-06T17:34:43.284Z,-2.90
2023-02-06T17:37:20.625Z,-2.90
2023-02-06T17:39:52.060Z,-3.00
2023-02-06T17:42:21.863Z,-3.00
2023-02-06T17:44:48.825Z,-3.00
2023-02-06T17:47:15.654Z,-3.00
2023-02-06T17:49:42.585Z,-3.00
2023-02-06T17:52:09.594Z,-3.10
2023-02-06T17:54:36.416Z,-3.20
2023-02-06T17:57:03.437Z,-3.10
2023-02-06T17:59:30.316Z,-3.10
2023-02-06T18:01:57.373Z,-3.20
2023-02-06T18:04:24.763Z,-3.20
2023-02-06T18:06:51.696Z,-3.20
2023-02-06T18:09:18.763Z,-3.20
2023-02-06T18:11:45.849Z,-3.20
2023-02-06T18:14:12.884Z,-3.30
2023-02-06T18:16:42.910Z,-3.30
2023-02-06T18:19:10.527Z,-3.40
2023-02-06T18:21:37.558Z,-3.40
2023-02-06T18:24:05.667Z,-3.40
2023-02-06T18:26:32.646Z,-3.40
2023-02-06T18:28:59.564Z,-3.40
2023-02-06T18:31:33.335Z,-3.40
2023-02-06T18:34:03.191Z,-3.40
2023-02-06T18:36:30.278Z,-3.50
2023-02-06T18:38:57.623Z,-3.50
2023-02-06T18:41:43.124Z,-3.50
2023-02-06T18:44:11.298Z,-3.50
2023-02-06T18:46:39.208Z,-3.60
2023-02-06T18:49:06.379Z,-3.60
2023-02-06T18:51:33.616Z,-3.60
2023-02-06T18:54:01.245Z,-3.60
2023-02-06T18:56:28.155Z,-3.60
2023-02-06T18:58:56.204Z,-3.60
2023-02-06T19:01:25.019Z,-3.60
2023-02-06T19:03:52.988Z,-3.60
2023-02-06T19:06:41.360Z,-3.70
2023-02-06T19:09:08.720Z,-3.60
2023-02-06T19:11:38.716Z,-3.60
2023-02-06T19:14:07.946Z,-3.60
2023-02-06T19:16:38.406Z,-3.60
2023-02-06T19:19:18.291Z,-3.70
2023-02-06T19:21:46.878Z,-3.80
2023-02-06T19:24:15.780Z,-3.70
2023-02-06T19:26:55.582Z,-3.70
2023-02-06T19:29:34.615Z,-3.70
2023-02-06T19:32:05.114Z,-3.80
2023-02-06T19:34:39.096Z,-3.80
2023-02-06T19:37:08.965Z,-3.80
2023-02-06T19:39:38.074Z,-3.70
2023-02-06T19:42:06.996Z,-3.70
2023-02-06T19:44:34.178Z,-3.70
2023-02-06T19:47:01.540Z,-3.70
2023-02-06T19:49:28.805Z,-3.80
2023-02-06T19:51:55.700Z,-3.80
2023-02-06T19:54:22.557Z,-3.80
2023-02-06T19:56:49.573Z,-3.80
2023-02-06T19:59:21.762Z,-3.80
2023-02-06T20:01:55.024Z,-3.90
2023-02-06T20:04:25.049Z,-3.90
2023-02-06T20:06:52.672Z,-3.90
2023-02-06T20:09:20.579Z,-4.00
2023-02-06T20:11:49.150Z,-4.00
2023-02-06T20:14:17.297Z,-4.00
2023-02-06T20:16:45.386Z,-4.00
2023-02-06T20:19:15.708Z,-4.00
2023-02-06T20:21:46.026Z,-3.90
2023-02-06T20:24:15.755Z,-3.90
2023-02-06T20:26:43.283Z,-3.90
2023-02-06T20:29:20.032Z,-3.90
2023-02-06T20:31:47.095Z,-3.90
2023-02-06T20:34:14.129Z,-4.00
2023-02-06T20:36:41.976Z,-4.00
2023-02-06T20:39:12.193Z,-4.00
2023-02-06T20:41:40.055Z,-3.90
2023-02-06T20:44:07.884Z,-4.00
2023-02-06T20:46:36.715Z,-4.10
2023-02-06T20:49:06.068Z,-4.10
2023-02-06T20:51:33.112Z,-4.10
2023-02-06T20:53:59.975Z,-4.10
2023-02-06T20:56:27.279Z,-4.10
2023-02-06T20:58:54.212Z,-4.10
2023-02-06T21:01:24.471Z,-4.10
2023-02-06T21:03:54.512Z,-4.10
2023-02-06T21:06:21.989Z,-4.20
2023-02-06T21:08:57.317Z,-4.30
2023-02-06T21:11:29.330Z,-4.30
2023-02-06T21:13:58.101Z,-4.30
2023-02-06T21:16:26.496Z,-4.20
2023-02-06T21:18:54.070Z,-4.10
2023-02-06T21:21:21.376Z,-4.10
2023-02-06T21:23:48.637Z,-4.10
2023-02-06T21:26:17.956Z,-4.10
2023-02-06T21:28:48.824Z,-4.00
2023-02-06T21:31:25.156Z,-4.10
2023-02-06T21:33:52.661Z,-4.10
2023-02-06T21:36:21.281Z,-4.20
2023-02-06T21:38:48.751Z,-4.20
2023-02-06T21:41:18.537Z,-4.10
2023-02-06T21:43:45.951Z,-4.10
2023-02-06T21:46:13.517Z,-4.20
2023-02-06T21:48:41.207Z,-4.10
2023-02-06T21:51:13.271Z,-4.10
2023-02-06T21:53:41.621Z,-4.20
2023-02-06T21:56:17.504Z,-4.20
2023-02-06T21:58:44.788Z,-4.30
2023-02-06T22:01:20.541Z,-4.30
2023-02-06T22:03:48.030Z,-4.40
2023-02-06T22:06:15.566Z,-4.50
2023-02-06T22:08:45.274Z,-4.50
2023-02-06T22:11:17.690Z,-4.60
2023-02-06T22:13:45.735Z,-4.60
2023-02-06T22:16:14.588Z,-4.70
2023-02-06T22:18:41.917Z,-4.80
2023-02-06T22:21:22.653Z,-4.80
2023-02-06T22:23:52.398Z,-4.80
2023-02-06T22:26:21.527Z,-4.80
2023-02-06T22:28:49.002Z,-4.80
2023-02-06T22:31:17.788Z,-4.80
2023-02-06T22:33:44.983Z,-4.80
2023-02-06T22:36:15.699Z,-5.00
2023-02-06T22:38:45.466Z,-5.00
2023-02-06T22:41:15.925Z,-5.10
2023-02-06T22:43:44.341Z,-5.00
2023-02-06T22:46:23.102Z,-5.10
2023-02-06T22:48:50.180Z,-5.00
2023-02-06T22:51:17.468Z,-5.00
2023-02-06T22:53:44.785Z,-4.90
2023-02-06T22:56:27.360Z,-4.80
2023-02-06T22:59:03.860Z,-4.70
2023-02-06T23:01:34.073Z,-4.70
2023-02-06T23:04:02.473Z,-4.70
2023-02-06T23:06:31.865Z,-4.70
2023-02-06T23:09:00.054Z,-4.70
2023-02-06T23:11:28.316Z,-4.60
2023-02-06T23:13:57.936Z,-4.60
2023-02-06T23:16:25.001Z,-4.50
2023-02-06T23:18:52.276Z,-4.40
2023-02-06T23:21:21.160Z,-4.30
2023-02-06T23:23:48.244Z,-4.40
2023-02-06T23:26:16.947Z,-4.40
2023-02-06T23:28:44.108Z,-4.30
2023-02-06T23:31:12.303Z,-4.30
2023-02-06T23:33:39.374Z,-4.30
2023-02-06T23:36:11.784Z,-4.30
2023-02-06T23:38:39.694Z,-4.40
2023-02-06T23:41:12.005Z,-4.30
2023-02-06T23:43:39.757Z,-4.30
2023-02-06T23:46:07.562Z,-4.40
2023-02-06T23:48:35.302Z,-4.30
2023-02-06T23:51:02.869Z,-4.20
2023-02-06T23:53:29.868Z,-4.10
2023-02-06T23:55:57.849Z,-4.10
2023-02-06T23:58:24.874Z,-4.00
